Terminal Aerodrome Forecast
Issued by NWS Mt. Holly, NJ

Home | Current Version | Previous Version | Text Only | Print | Product List | Glossary On
Versions: 1 2 3 4 5 6 7 8 9 10 11 12 13 14 15 16
000
FTUS41 KPHI 222340
TAFRDG
TAF
KRDG 222340Z 2300/2324 17004KT P6SM BKN070 OVC090
     FM230200 VRB05KT 4SM -SHRA BKN050 OVC080
     FM230600 29004KT P6SM VCSH BKN060 OVC080
     FM230800 30004KT P6SM BKN015
     FM231400 00000KT P6SM BKN080 PROB30 2316/2320 4SM -TSRA
      OVC040CB
     FM232000 18004KT 4SM +SHRA BKN030 PROB30 2320/2324 2SM TS
      OVC015CB=

USA.gov is the U.S. government's official web portal to all federal, state and local government web resources and services.